createdAt,value
2023-08-11T00:00:40.897Z,4.47
2023-08-11T00:02:12.678Z,4.53
2023-08-11T00:03:47.097Z,4.50
2023-08-11T00:05:20.665Z,4.40
2023-08-11T00:06:52.494Z,4.28
2023-08-11T00:08:24.208Z,4.57
2023-08-11T00:09:56.253Z,4.75
2023-08-11T00:11:27.894Z,4.53
2023-08-11T00:12:59.693Z,4.40
2023-08-11T00:14:31.464Z,4.50
2023-08-11T00:16:04.573Z,4.38
2023-08-11T00:17:36.375Z,4.30
2023-08-11T00:19:08.405Z,4.30
2023-08-11T00:20:41.747Z,4.20
2023-08-11T00:22:13.385Z,4.25
2023-08-11T00:23:45.179Z,4.40
2023-08-11T00:25:16.907Z,4.22
2023-08-11T00:26:48.767Z,4.40
2023-08-11T00:28:20.409Z,4.32
2023-08-11T00:29:52.406Z,4.40
2023-08-11T00:31:24.122Z,4.28
2023-08-11T00:32:56.012Z,4.20
2023-08-11T00:34:27.858Z,4.60
2023-08-11T00:36:00.893Z,4.20
2023-08-11T00:37:32.719Z,4.20
2023-08-11T00:39:04.648Z,4.55
2023-08-11T00:40:37.781Z,3.95
2023-08-11T00:42:09.458Z,4.10
2023-08-11T00:43:41.127Z,4.15
2023-08-11T00:45:12.767Z,4.30
2023-08-11T00:46:44.710Z,4.18
2023-08-11T00:48:16.809Z,4.43
2023-08-11T00:49:50.712Z,4.10
2023-08-11T00:51:25.714Z,3.90
2023-08-11T00:53:02.352Z,4.50
2023-08-11T00:54:34.160Z,4.28
2023-08-11T00:56:05.845Z,4.50
2023-08-11T00:57:38.274Z,4.35
2023-08-11T00:59:11.047Z,4.20
2023-08-11T01:00:42.800Z,4.90
2023-08-11T01:02:14.499Z,4.90
2023-08-11T01:03:48.803Z,4.63
2023-08-11T01:05:20.691Z,4.53
2023-08-11T01:06:57.822Z,4.85
2023-08-11T01:08:31.279Z,4.60
2023-08-11T01:10:05.870Z,4.68
2023-08-11T01:11:39.585Z,4.60
2023-08-11T01:13:14.330Z,4.90
2023-08-11T01:14:48.972Z,5.00
2023-08-11T01:16:21.335Z,5.03
2023-08-11T01:17:53.016Z,4.70
2023-08-11T01:19:29.777Z,4.80
2023-08-11T01:21:04.577Z,5.03
2023-08-11T01:22:38.098Z,5.22
2023-08-11T01:24:11.790Z,5.30
2023-08-11T01:25:43.466Z,5.10
2023-08-11T01:27:15.214Z,5.80
2023-08-11T01:28:48.703Z,5.40
2023-08-11T01:30:20.546Z,5.80
2023-08-11T01:31:52.361Z,5.88
2023-08-11T01:33:24.073Z,5.57
2023-08-11T01:34:55.908Z,5.82
2023-08-11T01:36:27.971Z,5.82
2023-08-11T01:38:00.448Z,5.82
2023-08-11T01:39:34.203Z,5.60
2023-08-11T01:41:06.249Z,5.75
2023-08-11T01:42:46.579Z,6.15
2023-08-11T01:44:22.373Z,5.90
2023-08-11T01:45:54.248Z,5.45
2023-08-11T01:47:25.913Z,5.78
2023-08-11T01:48:57.605Z,5.60
2023-08-11T01:50:29.636Z,5.38
2023-08-11T01:52:01.398Z,5.75
2023-08-11T01:53:33.065Z,6.05
2023-08-11T01:55:07.531Z,5.63
2023-08-11T01:56:39.325Z,5.28
2023-08-11T01:58:10.980Z,5.72
2023-08-11T01:59:42.766Z,5.30
2023-08-11T02:01:14.500Z,5.88
2023-08-11T02:02:46.535Z,5.85
2023-08-11T02:04:19.081Z,5.57
2023-08-11T02:05:50.702Z,5.20
2023-08-11T02:07:22.329Z,5.35
2023-08-11T02:08:53.982Z,5.30
2023-08-11T02:10:27.033Z,5.32
2023-08-11T02:11:58.743Z,5.40
2023-08-11T02:13:31.177Z,5.65
2023-08-11T02:15:02.841Z,5.45
2023-08-11T02:16:35.033Z,5.50
2023-08-11T02:18:06.944Z,5.90
2023-08-11T02:19:38.618Z,5.43
2023-08-11T02:21:11.380Z,5.00
2023-08-11T02:22:43.083Z,5.28
2023-08-11T02:24:14.777Z,5.57
2023-08-11T02:25:47.947Z,5.55
2023-08-11T02:27:19.575Z,5.00
2023-08-11T02:28:51.524Z,4.97
2023-08-11T02:30:23.656Z,5.47
2023-08-11T02:31:55.407Z,5.38
2023-08-11T02:33:27.361Z,5.25
2023-08-11T02:34:59.269Z,5.32
2023-08-11T02:36:31.059Z,5.50
2023-08-11T02:38:02.883Z,5.43
2023-08-11T02:39:34.646Z,5.20
2023-08-11T02:41:07.875Z,5.32
2023-08-11T02:42:43.731Z,5.70
2023-08-11T02:44:15.450Z,5.78
2023-08-11T02:45:47.849Z,6.13
2023-08-11T02:47:19.606Z,5.50
2023-08-11T02:48:51.458Z,5.88
2023-08-11T02:50:23.185Z,5.68
2023-08-11T02:51:54.896Z,5.78
2023-08-11T02:53:27.108Z,5.55
2023-08-11T02:54:58.954Z,5.80
2023-08-11T02:56:32.446Z,6.13
2023-08-11T02:58:04.265Z,5.32
2023-08-11T02:59:36.339Z,5.40
2023-08-11T03:01:08.508Z,5.45
2023-08-11T03:02:40.711Z,5.85
2023-08-11T03:04:12.412Z,5.38
2023-08-11T03:05:44.275Z,5.50
2023-08-11T03:07:15.933Z,5.15
2023-08-11T03:08:47.569Z,5.72
2023-08-11T03:10:19.272Z,5.38
2023-08-11T03:11:52.303Z,5.50
2023-08-11T03:13:24.959Z,5.35
2023-08-11T03:14:56.700Z,5.60
2023-08-11T03:16:28.579Z,5.78
2023-08-11T03:18:00.346Z,5.78
2023-08-11T03:19:32.537Z,5.53
2023-08-11T03:21:18.578Z,5.65
2023-08-11T03:22:50.822Z,5.35
2023-08-11T03:24:22.631Z,5.80
2023-08-11T03:25:54.698Z,5.93
2023-08-11T03:27:27.806Z,6.13
2023-08-11T03:28:59.531Z,5.95
2023-08-11T03:30:31.624Z,5.90
2023-08-11T03:32:04.140Z,5.95
2023-08-11T03:33:35.778Z,5.60
2023-08-11T03:35:07.813Z,5.72
2023-08-11T03:36:39.520Z,5.60
2023-08-11T03:38:11.208Z,5.43
2023-08-11T03:39:42.849Z,5.80
2023-08-11T03:41:14.586Z,5.80
2023-08-11T03:42:47.689Z,5.65
2023-08-11T03:44:19.749Z,5.47
2023-08-11T03:45:51.420Z,5.90
2023-08-11T03:47:23.051Z,5.80
2023-08-11T03:48:54.729Z,5.53
2023-08-11T03:50:26.672Z,5.63
2023-08-11T03:51:58.486Z,5.45
2023-08-11T03:53:30.287Z,5.43
2023-08-11T03:55:02.264Z,5.10
2023-08-11T03:56:34.045Z,5.97
2023-08-11T03:58:10.664Z,5.40
2023-08-11T03:59:42.344Z,5.18
2023-08-11T04:01:14.207Z,5.40
2023-08-11T04:02:46.933Z,5.32
2023-08-11T04:04:19.144Z,5.57
2023-08-11T04:05:51.152Z,5.53
2023-08-11T04:07:22.784Z,5.35
2023-08-11T04:08:54.487Z,5.13
2023-08-11T04:10:26.208Z,5.80
2023-08-11T04:11:57.914Z,5.25
2023-08-11T04:13:31.214Z,5.32
2023-08-11T04:15:03.019Z,5.38
2023-08-11T04:16:34.658Z,5.40
2023-08-11T04:18:06.517Z,5.68
2023-08-11T04:19:38.280Z,5.30
2023-08-11T04:21:10.517Z,5.43
2023-08-11T04:22:42.316Z,5.88
2023-08-11T04:24:14.339Z,5.43
2023-08-11T04:25:46.055Z,5.70
2023-08-11T04:27:18.492Z,5.32
2023-08-11T04:28:51.554Z,5.47
2023-08-11T04:30:23.484Z,6.03
2023-08-11T04:31:55.174Z,5.63
2023-08-11T04:33:27.051Z,5.97
2023-08-11T04:34:58.850Z,5.70
2023-08-11T04:36:30.568Z,5.80
2023-08-11T04:38:02.499Z,5.82
2023-08-11T04:39:34.272Z,5.40
2023-08-11T04:41:05.920Z,5.68
2023-08-11T04:42:37.590Z,5.60
2023-08-11T04:44:10.780Z,5.72
2023-08-11T04:45:42.438Z,5.45
2023-08-11T04:47:14.076Z,5.25
2023-08-11T04:48:46.167Z,5.78
2023-08-11T04:50:18.053Z,5.10
2023-08-11T04:51:49.706Z,5.47
2023-08-11T04:53:22.459Z,5.60
2023-08-11T04:54:54.277Z,5.55
2023-08-11T04:56:25.941Z,5.70
2023-08-11T04:57:57.578Z,5.30
2023-08-11T04:59:30.745Z,5.65
2023-08-11T05:01:05.080Z,5.40
2023-08-11T05:02:36.851Z,5.28
2023-08-11T05:04:09.676Z,5.70
2023-08-11T05:05:42.424Z,5.15
2023-08-11T05:07:14.260Z,5.50
2023-08-11T05:08:46.371Z,5.20
2023-08-11T05:10:18.273Z,5.45
2023-08-11T05:11:50.395Z,5.72
2023-08-11T05:13:22.168Z,5.53
2023-08-11T05:14:55.324Z,5.30
2023-08-11T05:16:27.024Z,5.47
2023-08-11T05:17:58.763Z,5.30
2023-08-11T05:19:30.538Z,5.10
2023-08-11T05:21:02.209Z,5.18
2023-08-11T05:22:33.946Z,5.50
2023-08-11T05:24:07.043Z,5.25
2023-08-11T05:25:41.692Z,5.22
2023-08-11T05:27:15.553Z,5.80
2023-08-11T05:28:47.346Z,5.35
2023-08-11T05:30:25.468Z,5.60
2023-08-11T05:31:57.171Z,4.97
2023-08-11T05:33:29.027Z,5.45
2023-08-11T05:35:00.949Z,5.32
2023-08-11T05:36:32.826Z,5.85
2023-08-11T05:38:04.493Z,5.70
2023-08-11T05:39:38.989Z,6.15
2023-08-11T05:41:11.810Z,5.95
2023-08-11T05:42:43.768Z,5.38
2023-08-11T05:44:15.455Z,5.60
2023-08-11T05:45:48.785Z,6.10
2023-08-11T05:47:20.608Z,6.00
2023-08-11T05:48:52.348Z,5.28
2023-08-11T05:50:24.123Z,5.60
2023-08-11T05:51:55.806Z,6.13
2023-08-11T05:53:27.534Z,5.40
2023-08-11T05:54:59.191Z,5.75
2023-08-11T05:56:31.288Z,6.47
2023-08-11T05:58:03.272Z,6.72
2023-08-11T05:59:35.169Z,6.05
2023-08-11T06:01:08.228Z,5.90
2023-08-11T06:02:40.001Z,6.30
2023-08-11T06:04:11.937Z,6.47
2023-08-11T06:05:43.666Z,6.35
2023-08-11T06:07:15.699Z,6.53
2023-08-11T06:08:47.366Z,5.70
2023-08-11T06:10:19.248Z,6.30
2023-08-11T06:11:50.887Z,6.10
2023-08-11T06:13:22.945Z,6.15
2023-08-11T06:14:54.575Z,6.18
2023-08-11T06:16:27.930Z,6.05
2023-08-11T06:18:01.033Z,5.57
2023-08-11T06:19:32.856Z,5.93
2023-08-11T06:21:08.576Z,5.75
2023-08-11T06:22:40.528Z,8.77
2023-08-11T06:24:12.399Z,7.93
2023-08-11T06:25:46.525Z,7.65
2023-08-11T06:27:18.355Z,6.78
2023-08-11T06:28:50.090Z,8.05
2023-08-11T06:30:22.016Z,6.82
2023-08-11T06:31:55.277Z,6.32
2023-08-11T06:33:27.464Z,6.20
2023-08-11T06:34:59.094Z,6.50
2023-08-11T06:36:30.834Z,6.38
2023-08-11T06:38:02.559Z,5.90
2023-08-11T06:39:34.247Z,6.50
2023-08-11T06:41:06.236Z,6.55
2023-08-11T06:42:37.885Z,6.50
2023-08-11T06:44:16.081Z,5.78
2023-08-11T06:45:48.524Z,5.70
2023-08-11T06:47:22.160Z,6.38
2023-08-11T06:48:53.976Z,5.82
2023-08-11T06:50:26.031Z,6.10
2023-08-11T06:51:57.933Z,6.50
2023-08-11T06:53:29.779Z,6.10
2023-08-11T06:55:01.489Z,5.57
2023-08-11T06:56:33.528Z,5.90
2023-08-11T06:58:05.648Z,5.85
2023-08-11T06:59:37.318Z,6.80
2023-08-11T07:01:09.217Z,6.88
2023-08-11T07:02:42.328Z,6.22
2023-08-11T07:04:14.424Z,5.57
2023-08-11T07:05:46.549Z,6.28
2023-08-11T07:07:21.090Z,6.95
2023-08-11T07:08:52.725Z,6.28
2023-08-11T07:10:25.948Z,5.75
2023-08-11T07:11:57.888Z,10.20
2023-08-11T07:13:29.542Z,6.78
2023-08-11T07:15:01.464Z,6.15
2023-08-11T07:16:33.453Z,5.90
2023-08-11T07:18:06.739Z,5.20
2023-08-11T07:19:38.490Z,5.88
2023-08-11T07:21:10.458Z,5.63
2023-08-11T07:22:42.168Z,5.70
2023-08-11T07:24:13.845Z,6.70
2023-08-11T07:25:45.632Z,6.40
2023-08-11T07:27:19.476Z,6.63
2023-08-11T07:28:53.632Z,6.82
2023-08-11T07:30:25.490Z,6.95
2023-08-11T07:31:57.847Z,6.20
2023-08-11T07:33:30.984Z,6.70
2023-08-11T07:35:02.864Z,6.97
2023-08-11T07:36:37.817Z,6.60
2023-08-11T07:38:11.414Z,6.80
2023-08-11T07:39:44.266Z,6.60
2023-08-11T07:41:15.918Z,7.82
2023-08-11T07:42:47.790Z,9.10
2023-08-11T07:44:19.526Z,8.25
2023-08-11T07:45:51.240Z,7.18
2023-08-11T07:47:23.615Z,7.22
2023-08-11T07:48:56.643Z,7.15
2023-08-11T07:50:28.311Z,6.80
2023-08-11T07:52:00.135Z,6.97
2023-08-11T07:53:32.954Z,6.75
2023-08-11T07:55:05.726Z,6.65
2023-08-11T07:56:37.541Z,6.80
2023-08-11T07:58:09.309Z,7.10
2023-08-11T07:59:41.148Z,6.68
2023-08-11T08:01:12.899Z,6.45
2023-08-11T08:02:45.517Z,7.30
2023-08-11T08:04:18.863Z,7.05
2023-08-11T08:05:50.991Z,6.60
2023-08-11T08:07:22.665Z,6.90
2023-08-11T08:08:54.481Z,6.68
2023-08-11T08:10:26.359Z,6.72
2023-08-11T08:11:58.081Z,6.68
2023-08-11T08:13:30.458Z,6.88
2023-08-11T08:15:02.858Z,7.53
2023-08-11T08:16:39.973Z,7.18
2023-08-11T08:18:11.974Z,6.60
2023-08-11T08:19:46.092Z,7.82
2023-08-11T08:21:18.029Z,8.38
2023-08-11T08:22:49.990Z,7.25
2023-08-11T08:24:22.351Z,7.55
2023-08-11T08:25:54.323Z,7.38
2023-08-11T08:27:26.111Z,7.00
2023-08-11T08:28:57.778Z,6.80
2023-08-11T08:30:29.492Z,6.93
2023-08-11T08:32:01.131Z,7.10
2023-08-11T08:33:32.875Z,7.85
2023-08-11T08:35:07.638Z,8.48
2023-08-11T08:36:39.511Z,6.82
2023-08-11T08:38:11.185Z,7.55
2023-08-11T08:39:44.690Z,6.72
2023-08-11T08:41:19.565Z,6.38
2023-08-11T08:42:51.278Z,6.70
2023-08-11T08:44:22.973Z,7.07
2023-08-11T08:45:54.907Z,6.05
2023-08-11T08:47:27.602Z,6.65
2023-08-11T08:49:08.394Z,6.85
2023-08-11T08:50:41.740Z,7.18
2023-08-11T08:52:13.772Z,6.53
2023-08-11T08:53:45.501Z,6.72
2023-08-11T08:55:18.263Z,6.68
2023-08-11T08:56:50.445Z,6.65
2023-08-11T08:58:22.158Z,6.90
2023-08-11T08:59:53.799Z,6.45
2023-08-11T09:01:25.563Z,6.90
2023-08-11T09:02:57.340Z,6.47
2023-08-11T09:04:29.240Z,7.57
2023-08-11T09:06:02.505Z,8.75
2023-08-11T09:07:34.634Z,9.02
2023-08-11T09:09:06.464Z,15.13
2023-08-11T09:10:38.192Z,5.90
2023-08-11T09:12:10.858Z,8.43
2023-08-11T09:13:44.645Z,7.22
2023-08-11T09:15:16.317Z,7.05
2023-08-11T09:16:48.754Z,7.90
2023-08-11T09:18:20.437Z,6.97
2023-08-11T09:19:53.756Z,6.32
2023-08-11T09:21:26.755Z,5.93
2023-08-11T09:22:59.361Z,6.20
2023-08-11T09:24:31.069Z,6.03
2023-08-11T09:26:02.840Z,6.50
2023-08-11T09:27:34.601Z,6.00
2023-08-11T09:29:06.505Z,6.00
2023-08-11T09:30:38.245Z,6.43
2023-08-11T09:32:10.186Z,5.88
2023-08-11T09:33:42.049Z,6.40
2023-08-11T09:35:14.069Z,5.67
2023-08-11T09:36:47.782Z,5.90
2023-08-11T09:38:19.474Z,6.00
2023-08-11T09:39:51.174Z,6.20
2023-08-11T09:41:23.420Z,6.33
2023-08-11T09:42:55.139Z,6.10
2023-08-11T09:44:27.187Z,5.83
2023-08-11T09:46:03.042Z,5.73
2023-08-11T09:47:34.914Z,5.83
2023-08-11T09:49:07.348Z,5.77
2023-08-11T09:50:39.120Z,6.23
2023-08-11T09:52:12.758Z,6.63
2023-08-11T09:53:44.413Z,6.00
2023-08-11T09:55:16.038Z,6.43
2023-08-11T09:56:47.710Z,6.13
2023-08-11T09:58:20.153Z,6.20
2023-08-11T09:59:52.086Z,5.70
2023-08-11T10:01:26.204Z,5.47
2023-08-11T10:03:00.852Z,5.37
2023-08-11T10:04:35.764Z,4.93
2023-08-11T10:06:07.703Z,5.10
2023-08-11T10:07:42.738Z,5.80
2023-08-11T10:09:14.484Z,4.93
2023-08-11T10:10:52.090Z,5.20
2023-08-11T10:12:23.893Z,5.20
2023-08-11T10:13:55.659Z,5.47
2023-08-11T10:15:27.787Z,5.60
2023-08-11T10:16:59.751Z,5.50
2023-08-11T10:18:32.512Z,5.70
2023-08-11T10:20:06.290Z,5.73
2023-08-11T10:21:37.997Z,5.23
2023-08-11T10:23:11.469Z,5.53
2023-08-11T10:24:44.732Z,5.40
2023-08-11T10:26:16.548Z,6.00
2023-08-11T10:27:48.256Z,5.50
2023-08-11T10:29:19.961Z,5.43
2023-08-11T10:30:55.979Z,5.30
2023-08-11T10:32:29.701Z,5.40
2023-08-11T10:34:06.326Z,5.50
2023-08-11T10:35:48.730Z,5.20
2023-08-11T10:37:24.270Z,4.70
2023-08-11T10:39:05.099Z,5.20
2023-08-11T10:40:37.929Z,5.00
2023-08-11T10:42:11.699Z,5.30
2023-08-11T10:43:47.237Z,4.83
2023-08-11T10:45:19.925Z,4.50
2023-08-11T10:46:52.729Z,4.60
2023-08-11T10:48:24.571Z,4.73
2023-08-11T10:49:56.424Z,5.20
2023-08-11T10:51:32.305Z,5.07
2023-08-11T10:53:07.772Z,5.30
2023-08-11T10:54:49.509Z,5.30
2023-08-11T10:56:28.110Z,5.00
2023-08-11T10:58:13.113Z,5.03
2023-08-11T10:59:44.834Z,5.03
2023-08-11T11:01:16.588Z,4.80
2023-08-11T11:02:48.362Z,5.20
2023-08-11T11:04:20.815Z,5.20
2023-08-11T11:05:52.513Z,5.77
2023-08-11T11:07:24.855Z,5.13
2023-08-11T11:08:56.718Z,5.80
2023-08-11T11:10:43.428Z,5.57
2023-08-11T11:12:20.974Z,5.60
2023-08-11T11:13:55.756Z,5.73
2023-08-11T11:15:28.605Z,5.60
2023-08-11T11:17:01.005Z,4.80
2023-08-11T11:18:33.581Z,5.37
2023-08-11T11:20:06.581Z,4.80
2023-08-11T11:21:39.666Z,5.30
2023-08-11T11:23:11.635Z,5.50
2023-08-11T11:24:43.271Z,5.20
2023-08-11T11:26:21.648Z,5.07
2023-08-11T11:27:55.731Z,5.00
2023-08-11T11:29:29.401Z,5.67
2023-08-11T11:31:01.368Z,5.50
2023-08-11T11:32:33.144Z,5.07
2023-08-11T11:34:05.472Z,5.30
2023-08-11T11:35:37.491Z,5.33
2023-08-11T11:37:09.579Z,4.70
2023-08-11T11:38:41.413Z,5.17
2023-08-11T11:40:13.626Z,4.70
2023-08-11T11:41:46.731Z,4.70
2023-08-11T11:43:18.763Z,5.40
2023-08-11T11:44:51.160Z,5.67
2023-08-11T11:46:23.123Z,6.07
2023-08-11T11:47:56.635Z,5.80
2023-08-11T11:49:30.655Z,5.50
2023-08-11T11:51:04.723Z,20.37
2023-08-11T11:52:38.192Z,6.47
2023-08-11T11:54:10.177Z,19.40
2023-08-11T11:55:45.671Z,5.60
2023-08-11T11:57:18.747Z,4.80
2023-08-11T11:58:50.995Z,9.93
2023-08-11T12:00:22.875Z,7.33
2023-08-11T12:01:58.376Z,6.97
2023-08-11T12:03:30.183Z,4.80
2023-08-11T12:05:01.992Z,4.57
2023-08-11T12:06:33.754Z,4.50
2023-08-11T12:08:22.159Z,4.40
2023-08-11T12:09:54.848Z,4.40
2023-08-11T12:11:26.857Z,4.27
2023-08-11T12:13:04.656Z,5.47
2023-08-11T12:14:39.293Z,3.43
2023-08-11T12:16:11.630Z,3.90
2023-08-11T12:17:43.507Z,4.10
2023-08-11T12:19:15.853Z,3.60
2023-08-11T12:20:47.976Z,4.20
2023-08-11T12:22:19.763Z,3.43
2023-08-11T12:23:51.751Z,3.50
2023-08-11T12:25:24.409Z,3.80
2023-08-11T12:26:58.747Z,3.70
2023-08-11T12:28:32.379Z,4.20
2023-08-11T12:30:04.864Z,4.47
2023-08-11T12:31:36.592Z,4.50
2023-08-11T12:33:08.362Z,4.43
2023-08-11T12:34:40.106Z,4.80
2023-08-11T12:36:11.784Z,4.37
2023-08-11T12:37:43.437Z,4.67
2023-08-11T12:39:15.287Z,5.07
2023-08-11T12:40:47.044Z,4.43
2023-08-11T12:42:19.048Z,4.20
2023-08-11T12:43:52.420Z,4.70
2023-08-11T12:45:24.277Z,4.30
2023-08-11T12:46:55.956Z,4.37
2023-08-11T12:48:27.973Z,4.23
2023-08-11T12:49:59.756Z,4.67
2023-08-11T12:51:31.381Z,4.20
2023-08-11T12:53:03.313Z,4.23
2023-08-11T12:54:35.192Z,4.37
2023-08-11T12:56:07.013Z,4.40
2023-08-11T12:57:38.700Z,4.33
2023-08-11T12:59:12.175Z,4.50
2023-08-11T13:00:44.277Z,4.23
2023-08-11T13:02:16.034Z,4.57
2023-08-11T13:03:48.406Z,4.07
2023-08-11T13:05:20.133Z,4.00
2023-08-11T13:06:51.935Z,4.27
2023-08-11T13:08:23.938Z,3.97
2023-08-11T13:09:55.992Z,4.40
2023-08-11T13:11:27.791Z,4.60
2023-08-11T13:12:59.492Z,4.30
2023-08-11T13:14:32.548Z,3.90
2023-08-11T13:16:05.222Z,3.77
2023-08-11T13:17:37.088Z,3.83
2023-08-11T13:19:10.034Z,3.90
2023-08-11T13:20:42.813Z,4.30
2023-08-11T13:22:14.525Z,4.00
2023-08-11T13:23:46.431Z,3.90
2023-08-11T13:25:18.290Z,4.20
2023-08-11T13:26:50.200Z,3.70
2023-08-11T13:28:22.080Z,3.97
2023-08-11T13:30:02.113Z,4.47
2023-08-11T13:31:33.901Z,4.30
2023-08-11T13:33:06.202Z,4.00
2023-08-11T13:34:37.914Z,3.87
2023-08-11T13:36:10.985Z,3.90
2023-08-11T13:37:42.816Z,3.90
2023-08-11T13:39:14.554Z,3.87
2023-08-11T13:40:46.223Z,3.90
2023-08-11T13:42:18.315Z,3.90
2023-08-11T13:43:50.021Z,3.50
2023-08-11T13:45:23.058Z,3.90
2023-08-11T13:46:54.694Z,3.33
2023-08-11T13:48:28.262Z,3.30
2023-08-11T13:50:01.521Z,4.47
2023-08-11T13:51:33.723Z,3.83
2023-08-11T13:53:05.392Z,4.07
2023-08-11T13:54:37.312Z,3.80
2023-08-11T13:56:10.260Z,4.30
2023-08-11T13:57:42.022Z,5.50
2023-08-11T13:59:13.701Z,4.80
2023-08-11T14:00:48.427Z,3.80
2023-08-11T14:02:20.166Z,3.70
2023-08-11T14:03:51.845Z,4.00
2023-08-11T14:05:23.763Z,3.20
2023-08-11T14:07:00.542Z,3.70
2023-08-11T14:08:38.155Z,3.50
2023-08-11T14:10:10.288Z,3.70
2023-08-11T14:11:42.049Z,4.00
2023-08-11T14:13:14.026Z,3.57
2023-08-11T14:14:48.851Z,3.80
2023-08-11T14:16:21.985Z,3.70
2023-08-11T14:17:53.782Z,3.20
2023-08-11T14:19:25.673Z,3.10
2023-08-11T14:20:57.380Z,2.87
2023-08-11T14:22:29.086Z,3.37
2023-08-11T14:24:00.966Z,3.10
2023-08-11T14:25:33.931Z,3.03
2023-08-11T14:27:06.420Z,3.23
2023-08-11T14:28:39.407Z,2.90
2023-08-11T14:30:12.142Z,3.10
2023-08-11T14:31:45.210Z,2.90
2023-08-11T14:33:16.980Z,3.07
2023-08-11T14:34:48.696Z,2.90
2023-08-11T14:36:20.598Z,3.03
2023-08-11T14:37:52.300Z,3.13
2023-08-11T14:39:24.106Z,3.30
2023-08-11T14:40:57.116Z,3.10
2023-08-11T14:42:28.883Z,3.00
2023-08-11T14:44:06.565Z,3.10
2023-08-11T14:45:38.251Z,2.90
2023-08-11T14:47:15.196Z,3.30
2023-08-11T14:48:47.832Z,3.30
2023-08-11T14:50:19.779Z,2.93
2023-08-11T14:51:52.862Z,3.03
2023-08-11T14:53:26.825Z,3.30
2023-08-11T14:54:58.481Z,2.97
2023-08-11T14:56:30.287Z,3.00
2023-08-11T14:58:02.244Z,2.73
2023-08-11T14:59:33.957Z,2.87
2023-08-11T15:01:06.478Z,3.03
2023-08-11T15:02:41.769Z,2.90
2023-08-11T15:04:13.915Z,2.60
2023-08-11T15:05:45.681Z,3.00
2023-08-11T15:07:17.393Z,3.13
2023-08-11T15:08:49.108Z,3.13
2023-08-11T15:10:20.920Z,2.70
2023-08-11T15:11:52.634Z,2.77
2023-08-11T15:13:24.373Z,2.60
2023-08-11T15:14:56.265Z,2.80
2023-08-11T15:16:29.177Z,3.10
2023-08-11T15:18:04.676Z,2.97
2023-08-11T15:19:36.363Z,2.60
2023-08-11T15:21:08.299Z,2.60
2023-08-11T15:22:40.241Z,2.80
2023-08-11T15:24:12.035Z,2.40
2023-08-11T15:25:44.008Z,2.80
2023-08-11T15:27:17.495Z,2.77
2023-08-11T15:28:50.660Z,2.70
2023-08-11T15:30:23.834Z,2.40
2023-08-11T15:31:55.486Z,2.20
2023-08-11T15:33:28.794Z,2.47
2023-08-11T15:35:00.651Z,2.50
2023-08-11T15:36:32.374Z,2.50
2023-08-11T15:38:04.779Z,2.37
2023-08-11T15:39:37.290Z,2.40
2023-08-11T15:41:09.001Z,2.50
2023-08-11T15:42:40.647Z,2.30
2023-08-11T15:44:16.586Z,2.30
2023-08-11T15:45:48.326Z,2.60
2023-08-11T15:47:20.079Z,2.37
2023-08-11T15:48:53.715Z,2.33
2023-08-11T15:50:25.693Z,2.37
2023-08-11T15:51:57.407Z,2.37
2023-08-11T15:53:29.131Z,2.53
2023-08-11T15:55:00.952Z,2.30
2023-08-11T15:56:32.612Z,2.37
2023-08-11T15:58:04.587Z,2.50
2023-08-11T15:59:36.431Z,2.30
2023-08-11T16:01:09.261Z,2.60
2023-08-11T16:02:41.305Z,2.60
2023-08-11T16:04:14.430Z,2.70
2023-08-11T16:05:46.293Z,2.40
2023-08-11T16:07:17.928Z,2.23
2023-08-11T16:08:49.695Z,2.50
2023-08-11T16:10:21.374Z,2.73
2023-08-11T16:11:55.192Z,2.30
2023-08-11T16:13:27.112Z,2.30
2023-08-11T16:14:58.821Z,2.33
2023-08-11T16:16:30.562Z,3.10
2023-08-11T16:18:02.239Z,2.67
2023-08-11T16:19:36.020Z,2.40
2023-08-11T16:21:08.552Z,2.50
2023-08-11T16:22:40.201Z,2.30
2023-08-11T16:24:11.866Z,2.40
2023-08-11T16:25:43.598Z,2.60
2023-08-11T16:27:15.297Z,2.60
2023-08-11T16:28:47.008Z,2.60
2023-08-11T16:30:18.783Z,2.60
2023-08-11T16:31:50.557Z,2.40
2023-08-11T16:33:22.301Z,2.50
2023-08-11T16:34:55.420Z,2.50
2023-08-11T16:36:28.753Z,2.50
2023-08-11T16:38:00.500Z,3.00
2023-08-11T16:39:32.248Z,5.90
2023-08-11T16:41:04.298Z,3.40
2023-08-11T16:42:36.028Z,2.87
2023-08-11T16:44:11.907Z,3.50
2023-08-11T16:45:45.667Z,2.90
2023-08-11T16:47:17.455Z,2.67
2023-08-11T16:48:49.660Z,2.50
2023-08-11T16:50:22.762Z,2.50
2023-08-11T16:51:54.426Z,2.63
2023-08-11T16:53:26.124Z,2.57
2023-08-11T16:54:59.257Z,3.00
2023-08-11T16:56:31.235Z,2.80
2023-08-11T16:58:03.263Z,2.93
2023-08-11T16:59:35.671Z,3.07
2023-08-11T17:01:07.718Z,2.90
2023-08-11T17:02:39.604Z,2.80
2023-08-11T17:04:13.526Z,2.87
2023-08-11T17:05:46.547Z,2.80
2023-08-11T17:07:18.258Z,2.73
2023-08-11T17:08:51.509Z,3.20
2023-08-11T17:10:27.453Z,3.17
2023-08-11T17:11:59.145Z,3.00
2023-08-11T17:13:31.013Z,2.80
2023-08-11T17:15:03.532Z,2.87
2023-08-11T17:16:35.285Z,3.10
2023-08-11T17:18:07.394Z,3.13
2023-08-11T17:19:39.149Z,3.20
2023-08-11T17:21:12.252Z,3.30
2023-08-11T17:22:43.956Z,3.43
2023-08-11T17:24:15.596Z,3.20
2023-08-11T17:25:47.645Z,3.20
2023-08-11T17:27:19.350Z,3.50
2023-08-11T17:28:54.761Z,3.23
2023-08-11T17:30:26.779Z,3.50
2023-08-11T17:31:58.407Z,3.40
2023-08-11T17:33:30.200Z,3.87
2023-08-11T17:35:02.175Z,4.07
2023-08-11T17:36:35.712Z,3.70
2023-08-11T17:38:07.775Z,3.50
2023-08-11T17:39:39.778Z,3.50
2023-08-11T17:41:11.787Z,3.50
2023-08-11T17:42:49.507Z,2.97
2023-08-11T17:44:21.216Z,3.23
2023-08-11T17:45:53.185Z,3.47
2023-08-11T17:47:30.491Z,3.30
2023-08-11T17:49:02.335Z,3.40
2023-08-11T17:50:35.590Z,3.47
2023-08-11T17:52:08.886Z,3.70
2023-08-11T17:53:41.670Z,3.40
2023-08-11T17:55:14.297Z,3.57
2023-08-11T17:56:46.055Z,3.00
2023-08-11T17:58:17.892Z,3.20
2023-08-11T17:59:49.956Z,3.40
2023-08-11T18:01:24.205Z,3.63
2023-08-11T18:02:56.188Z,3.70
2023-08-11T18:04:28.016Z,5.57
2023-08-11T18:05:59.734Z,4.27
2023-08-11T18:07:32.758Z,3.90
2023-08-11T18:09:04.866Z,3.80
2023-08-11T18:10:38.821Z,4.30
2023-08-11T18:12:12.586Z,4.00
2023-08-11T18:13:44.486Z,4.00
2023-08-11T18:15:16.835Z,3.77
2023-08-11T18:16:48.857Z,3.70
2023-08-11T18:18:20.579Z,3.60
2023-08-11T18:19:52.591Z,3.43
2023-08-11T18:21:24.260Z,3.40
2023-08-11T18:22:59.269Z,3.33
2023-08-11T18:24:31.001Z,3.50
2023-08-11T18:26:02.936Z,2.87
2023-08-11T18:27:34.913Z,4.00
2023-08-11T18:29:06.862Z,3.70
2023-08-11T18:30:39.951Z,3.30
2023-08-11T18:32:11.912Z,3.27
2023-08-11T18:33:43.974Z,3.30
2023-08-11T18:35:15.905Z,3.37
2023-08-11T18:36:47.576Z,3.43
2023-08-11T18:38:21.054Z,2.90
2023-08-11T18:39:52.889Z,3.40
2023-08-11T18:41:24.756Z,3.40
2023-08-11T18:42:56.506Z,3.10
2023-08-11T18:44:28.398Z,3.07
2023-08-11T18:46:03.777Z,3.00
2023-08-11T18:47:35.741Z,3.33
2023-08-11T18:49:07.524Z,3.20
2023-08-11T18:50:39.205Z,3.23
2023-08-11T18:52:13.522Z,3.30
2023-08-11T18:53:46.914Z,3.27
2023-08-11T18:55:19.041Z,3.17
2023-08-11T18:56:50.707Z,3.20
2023-08-11T18:58:22.571Z,2.93
2023-08-11T18:59:54.264Z,3.30
2023-08-11T19:01:26.108Z,3.10
2023-08-11T19:02:58.218Z,3.27
2023-08-11T19:04:29.875Z,3.07
2023-08-11T19:06:01.826Z,3.20
2023-08-11T19:07:33.502Z,3.30
2023-08-11T19:09:08.902Z,3.20
2023-08-11T19:10:40.633Z,3.30
2023-08-11T19:12:13.070Z,3.27
2023-08-11T19:13:47.360Z,3.27
2023-08-11T19:15:19.568Z,3.30
2023-08-11T19:16:51.205Z,3.23
2023-08-11T19:18:23.927Z,3.30
2023-08-11T19:19:55.687Z,3.35
2023-08-11T19:21:27.728Z,3.60
2023-08-11T19:22:59.716Z,3.63
2023-08-11T19:24:32.885Z,3.13
2023-08-11T19:26:05.493Z,3.25
2023-08-11T19:27:37.639Z,3.00
2023-08-11T19:29:09.440Z,2.90
2023-08-11T19:30:41.191Z,3.17
2023-08-11T19:32:13.367Z,3.40
2023-08-11T19:33:45.395Z,3.20
2023-08-11T19:35:17.233Z,3.30
2023-08-11T19:36:49.061Z,3.20
2023-08-11T19:38:20.757Z,3.20
2023-08-11T19:39:53.900Z,3.20
2023-08-11T19:41:26.056Z,3.03
2023-08-11T19:42:57.803Z,3.22
2023-08-11T19:44:30.162Z,3.30
2023-08-11T19:46:02.352Z,3.50
2023-08-11T19:47:34.265Z,3.53
2023-08-11T19:49:06.504Z,3.42
2023-08-11T19:50:38.193Z,3.40
2023-08-11T19:52:10.331Z,3.63
2023-08-11T19:53:42.433Z,3.10
2023-08-11T19:55:15.604Z,3.53
2023-08-11T19:56:47.334Z,3.20
2023-08-11T19:58:19.452Z,3.50
2023-08-11T19:59:51.315Z,3.50
2023-08-11T20:01:23.316Z,3.55
2023-08-11T20:02:55.413Z,3.63
2023-08-11T20:04:27.273Z,3.33
2023-08-11T20:05:58.960Z,3.30
2023-08-11T20:07:30.697Z,3.03
2023-08-11T20:09:03.073Z,3.72
2023-08-11T20:10:36.119Z,3.53
2023-08-11T20:12:08.147Z,3.20
2023-08-11T20:13:39.837Z,3.50
2023-08-11T20:15:11.579Z,3.47
2023-08-11T20:16:44.886Z,3.80
2023-08-11T20:18:16.735Z,3.58
2023-08-11T20:19:48.426Z,3.45
2023-08-11T20:21:20.294Z,3.60
2023-08-11T20:22:52.298Z,3.78
2023-08-11T20:24:24.101Z,3.72
2023-08-11T20:25:57.382Z,3.40
2023-08-11T20:27:29.936Z,3.55
2023-08-11T20:29:01.842Z,3.47
2023-08-11T20:30:34.155Z,3.67
2023-08-11T20:32:06.189Z,3.85